sensor_id;sensor_type;location;lat;lon;timestamp;P1;durP1;ratioP1;P2;durP2;ratioP2
69706;SDS011;56975;55.726;37.566;2024-02-26T00:05:00;6.2;;;3.2;;
69706;SDS011;56975;55.726;37.566;2024-02-26T00:10:00;5.2;;;3.3;;
69706;SDS011;56975;55.726;37.566;2024-02-26T00:20:00;7.4;;;3.7;;
69706;SDS011;56975;55.726;37.566;2024-02-26T00:25:00;6.5;;;3.6;;
69706;SDS011;56975;55.726;37.566;2024-02-26T00:35:00;4.6;;;2.5;;
69706;SDS011;56975;55.726;37.566;2024-02-26T00:40:00;6.1;;;3.2;;
69706;SDS011;56975;55.726;37.566;2024-02-26T00:50:00;6.3;;;3.1;;
69706;SDS011;56975;55.726;37.566;2024-02-26T00:55:01;7.1;;;3.1;;
69706;SDS011;56975;55.726;37.566;2024-02-26T01:05:00;5.2;;;2.9;;
69706;SDS011;56975;55.726;37.566;2024-02-26T01:10:00;7.5;;;3.2;;
69706;SDS011;56975;55.726;37.566;2024-02-26T01:20:00;6.4;;;2.4;;
69706;SDS011;56975;55.726;37.566;2024-02-26T01:25:00;10.0;;;3.8;;
69706;SDS011;56975;55.726;37.566;2024-02-26T01:35:00;7.4;;;2.5;;
69706;SDS011;56975;55.726;37.566;2024-02-26T01:40:00;5.8;;;2.1;;
69706;SDS011;56975;55.726;37.566;2024-02-26T01:50:00;6.8;;;2.7;;
69706;SDS011;56975;55.726;37.566;2024-02-26T01:55:00;5.4;;;2.5;;
69706;SDS011;56975;55.726;37.566;2024-02-26T02:05:00;5.3;;;2.6;;
69706;SDS011;56975;55.726;37.566;2024-02-26T02:10:00;3.5;;;2.2;;
69706;SDS011;56975;55.726;37.566;2024-02-26T02:20:00;6.2;;;2.5;;
69706;SDS011;56975;55.726;37.566;2024-02-26T02:25:00;4.3;;;2.1;;
69706;SDS011;56975;55.726;37.566;2024-02-26T02:35:00;5.8;;;2.2;;
69706;SDS011;56975;55.726;37.566;2024-02-26T02:40:00;6.0;;;2.7;;
69706;SDS011;56975;55.726;37.566;2024-02-26T02:50:00;6.4;;;2.6;;
69706;SDS011;56975;55.726;37.566;2024-02-26T02:55:00;6.4;;;1.9;;
69706;SDS011;56975;55.726;37.566;2024-02-26T03:05:00;5.2;;;1.9;;
69706;SDS011;56975;55.726;37.566;2024-02-26T03:10:00;6.2;;;2.1;;
69706;SDS011;56975;55.726;37.566;2024-02-26T03:20:00;3.3;;;1.7;;
69706;SDS011;56975;55.726;37.566;2024-02-26T03:25:00;2.6;;;1.6;;
69706;SDS011;56975;55.726;37.566;2024-02-26T03:35:00;4.1;;;2.3;;
69706;SDS011;56975;55.726;37.566;2024-02-26T03:40:00;5.1;;;2.4;;
69706;SDS011;56975;55.726;37.566;2024-02-26T03:50:00;4.1;;;2.0;;
69706;SDS011;56975;55.726;37.566;2024-02-26T03:55:00;5.5;;;2.6;;
69706;SDS011;56975;55.726;37.566;2024-02-26T04:05:00;3.9;;;2.2;;
69706;SDS011;56975;55.726;37.566;2024-02-26T04:10:01;3.2;;;1.7;;
69706;SDS011;56975;55.726;37.566;2024-02-26T04:20:00;7.1;;;2.0;;
69706;SDS011;56975;55.726;37.566;2024-02-26T04:25:00;6.0;;;1.9;;
69706;SDS011;56975;55.726;37.566;2024-02-26T04:35:00;4.7;;;1.8;;
69706;SDS011;56975;55.726;37.566;2024-02-26T04:40:00;5.1;;;2.7;;
69706;SDS011;56975;55.726;37.566;2024-02-26T04:50:00;5.6;;;2.9;;
69706;SDS011;56975;55.726;37.566;2024-02-26T04:55:00;5.5;;;2.7;;
69706;SDS011;56975;55.726;37.566;2024-02-26T05:05:00;6.0;;;2.7;;
69706;SDS011;56975;55.726;37.566;2024-02-26T05:10:00;4.8;;;2.7;;
69706;SDS011;56975;55.726;37.566;2024-02-26T05:20:00;4.9;;;2.7;;
69706;SDS011;56975;55.726;37.566;2024-02-26T05:25:00;8.4;;;3.8;;
69706;SDS011;56975;55.726;37.566;2024-02-26T05:35:00;6.4;;;3.0;;
69706;SDS011;56975;55.726;37.566;2024-02-26T05:40:00;10.6;;;3.4;;
69706;SDS011;56975;55.726;37.566;2024-02-26T05:50:00;7.6;;;2.9;;
69706;SDS011;56975;55.726;37.566;2024-02-26T05:55:00;9.0;;;4.1;;
69706;SDS011;56975;55.726;37.566;2024-02-26T06:05:00;13.5;;;3.8;;
69706;SDS011;56975;55.726;37.566;2024-02-26T06:10:00;5.7;;;3.2;;
69706;SDS011;56975;55.726;37.566;2024-02-26T06:20:00;7.1;;;3.4;;
69706;SDS011;56975;55.726;37.566;2024-02-26T06:25:00;6.9;;;3.2;;
69706;SDS011;56975;55.726;37.566;2024-02-26T06:35:00;10.1;;;3.7;;
69706;SDS011;56975;55.726;37.566;2024-02-26T06:40:00;6.0;;;3.1;;
69706;SDS011;56975;55.726;37.566;2024-02-26T06:50:00;6.4;;;3.9;;
69706;SDS011;56975;55.726;37.566;2024-02-26T06:55:00;7.4;;;3.7;;
69706;SDS011;56975;55.726;37.566;2024-02-26T07:05:00;6.1;;;3.6;;
69706;SDS011;56975;55.726;37.566;2024-02-26T07:10:00;6.7;;;3.5;;
69706;SDS011;56975;55.726;37.566;2024-02-26T07:20:00;11.6;;;4.3;;
69706;SDS011;56975;55.726;37.566;2024-02-26T07:25:00;11.6;;;4.3;;
69706;SDS011;56975;55.726;37.566;2024-02-26T07:35:00;6.8;;;3.1;;
69706;SDS011;56975;55.726;37.566;2024-02-26T07:40:00;7.6;;;3.3;;
69706;SDS011;56975;55.726;37.566;2024-02-26T07:50:00;7.2;;;3.8;;
69706;SDS011;56975;55.726;37.566;2024-02-26T07:55:00;8.3;;;3.9;;
69706;SDS011;56975;55.726;37.566;2024-02-26T08:05:00;6.5;;;3.8;;
69706;SDS011;56975;55.726;37.566;2024-02-26T08:10:00;5.4;;;3.3;;
69706;SDS011;56975;55.726;37.566;2024-02-26T08:20:00;5.9;;;3.6;;
69706;SDS011;56975;55.726;37.566;2024-02-26T08:25:00;7.5;;;3.2;;
69706;SDS011;56975;55.726;37.566;2024-02-26T08:35:00;6.9;;;3.6;;
69706;SDS011;56975;55.726;37.566;2024-02-26T08:40:00;6.6;;;3.2;;
69706;SDS011;56975;55.726;37.566;2024-02-26T08:55:00;7.0;;;3.7;;
69706;SDS011;56975;55.726;37.566;2024-02-26T09:05:00;7.8;;;4.7;;
69706;SDS011;56975;55.726;37.566;2024-02-26T09:10:00;9.6;;;4.2;;
69706;SDS011;56975;55.726;37.566;2024-02-26T09:20:00;10.9;;;4.5;;
69706;SDS011;56975;55.726;37.566;2024-02-26T09:25:00;11.1;;;4.5;;
69706;SDS011;56975;55.726;37.566;2024-02-26T09:35:00;9.1;;;3.9;;
69706;SDS011;56975;55.726;37.566;2024-02-26T09:40:00;8.8;;;3.5;;
69706;SDS011;56975;55.726;37.566;2024-02-26T09:50:00;8.6;;;4.3;;
69706;SDS011;56975;55.726;37.566;2024-02-26T09:55:00;9.6;;;4.2;;
69706;SDS011;56975;55.726;37.566;2024-02-26T10:05:00;7.7;;;4.0;;
69706;SDS011;56975;55.726;37.566;2024-02-26T10:25:00;15.7;;;5.7;;
69706;SDS011;56975;55.726;37.566;2024-02-26T10:30:02;7.8;;;3.8;;
69706;SDS011;56975;55.726;37.566;2024-02-26T10:40:00;11.3;;;4.3;;
69706;SDS011;56975;55.726;37.566;2024-02-26T10:45:00;10.6;;;3.8;;
69706;SDS011;56975;55.726;37.566;2024-02-26T10:55:00;8.3;;;3.7;;
69706;SDS011;56975;55.726;37.566;2024-02-26T11:00:00;14.2;;;5.5;;
69706;SDS011;56975;55.726;37.566;2024-02-26T11:10:00;12.1;;;4.4;;
69706;SDS011;56975;55.726;37.566;2024-02-26T11:15:00;7.9;;;4.0;;
69706;SDS011;56975;55.726;37.566;2024-02-26T11:30:00;9.1;;;5.0;;
69706;SDS011;56975;55.726;37.566;2024-02-26T11:35:00;13.5;;;5.2;;
69706;SDS011;56975;55.726;37.566;2024-02-26T11:45:00;9.0;;;3.6;;
69706;SDS011;56975;55.726;37.566;2024-02-26T11:50:00;9.5;;;4.6;;
69706;SDS011;56975;55.726;37.566;2024-02-26T11:55:00;13.4;;;5.8;;
69706;SDS011;56975;55.726;37.566;2024-02-26T12:00:10;15.7;;;4.4;;
69706;SDS011;56975;55.726;37.566;2024-02-26T12:30:00;8.5;;;3.9;;
69706;SDS011;56975;55.726;37.566;2024-02-26T12:35:00;11.1;;;4.4;;
69706;SDS011;56975;55.726;37.566;2024-02-26T12:45:00;10.7;;;3.9;;
69706;SDS011;56975;55.726;37.566;2024-02-26T12:50:00;10.0;;;4.1;;
69706;SDS011;56975;55.726;37.566;2024-02-26T13:00:00;11.0;;;4.4;;
69706;SDS011;56975;55.726;37.566;2024-02-26T13:05:00;10.9;;;4.5;;
69706;SDS011;56975;55.726;37.566;2024-02-26T13:15:00;8.7;;;3.6;;
69706;SDS011;56975;55.726;37.566;2024-02-26T13:20:00;7.3;;;3.7;;
69706;SDS011;56975;55.726;37.566;2024-02-26T13:30:02;14.8;;;4.2;;
69706;SDS011;56975;55.726;37.566;2024-02-26T13:35:08;11.7;;;4.0;;
69706;SDS011;56975;55.726;37.566;2024-02-26T14:05:00;6.5;;;2.9;;
69706;SDS011;56975;55.726;37.566;2024-02-26T14:10:00;11.2;;;3.6;;
69706;SDS011;56975;55.726;37.566;2024-02-26T14:20:00;7.4;;;3.5;;
69706;SDS011;56975;55.726;37.566;2024-02-26T14:25:00;5.3;;;3.2;;
69706;SDS011;56975;55.726;37.566;2024-02-26T14:35:00;9.2;;;3.1;;
69706;SDS011;56975;55.726;37.566;2024-02-26T14:50:00;6.3;;;3.6;;
69706;SDS011;56975;55.726;37.566;2024-02-26T14:55:00;8.0;;;3.6;;
69706;SDS011;56975;55.726;37.566;2024-02-26T15:05:00;9.9;;;4.0;;
69706;SDS011;56975;55.726;37.566;2024-02-26T15:10:00;9.0;;;3.7;;
69706;SDS011;56975;55.726;37.566;2024-02-26T15:20:00;11.3;;;3.5;;
69706;SDS011;56975;55.726;37.566;2024-02-26T15:25:00;15.3;;;5.6;;
69706;SDS011;56975;55.726;37.566;2024-02-26T15:35:00;9.4;;;3.4;;
69706;SDS011;56975;55.726;37.566;2024-02-26T15:40:00;9.7;;;3.3;;
69706;SDS011;56975;55.726;37.566;2024-02-26T15:55:00;9.4;;;4.4;;
69706;SDS011;56975;55.726;37.566;2024-02-26T16:00:00;9.2;;;4.0;;
69706;SDS011;56975;55.726;37.566;2024-02-26T16:20:00;8.1;;;4.0;;
69706;SDS011;56975;55.726;37.566;2024-02-26T16:30:00;11.2;;;3.7;;
69706;SDS011;56975;55.726;37.566;2024-02-26T16:35:00;9.1;;;4.3;;
69706;SDS011;56975;55.726;37.566;2024-02-26T16:45:00;5.5;;;3.2;;
69706;SDS011;56975;55.726;37.566;2024-02-26T16:50:00;6.6;;;3.1;;
69706;SDS011;56975;55.726;37.566;2024-02-26T17:00:00;6.6;;;3.7;;
69706;SDS011;56975;55.726;37.566;2024-02-26T17:05:00;6.2;;;3.4;;
69706;SDS011;56975;55.726;37.566;2024-02-26T17:15:00;5.2;;;2.7;;
69706;SDS011;56975;55.726;37.566;2024-02-26T17:20:00;5.9;;;3.1;;
69706;SDS011;56975;55.726;37.566;2024-02-26T17:30:00;9.6;;;4.3;;
69706;SDS011;56975;55.726;37.566;2024-02-26T17:35:00;6.5;;;3.5;;
69706;SDS011;56975;55.726;37.566;2024-02-26T17:45:00;13.0;;;4.7;;
69706;SDS011;56975;55.726;37.566;2024-02-26T17:50:00;9.0;;;3.4;;
69706;SDS011;56975;55.726;37.566;2024-02-26T18:00:00;8.0;;;3.7;;
69706;SDS011;56975;55.726;37.566;2024-02-26T18:05:00;10.3;;;4.1;;
69706;SDS011;56975;55.726;37.566;2024-02-26T18:15:00;9.9;;;4.0;;
69706;SDS011;56975;55.726;37.566;2024-02-26T18:20:00;5.7;;;3.3;;
69706;SDS011;56975;55.726;37.566;2024-02-26T18:30:00;7.0;;;3.3;;
69706;SDS011;56975;55.726;37.566;2024-02-26T18:35:00;8.4;;;4.1;;
69706;SDS011;56975;55.726;37.566;2024-02-26T18:45:00;13.5;;;5.4;;
69706;SDS011;56975;55.726;37.566;2024-02-26T18:50:00;7.9;;;3.7;;
69706;SDS011;56975;55.726;37.566;2024-02-26T19:00:00;9.3;;;4.8;;
69706;SDS011;56975;55.726;37.566;2024-02-26T19:05:00;5.7;;;3.1;;
69706;SDS011;56975;55.726;37.566;2024-02-26T19:20:00;8.4;;;4.5;;
69706;SDS011;56975;55.726;37.566;2024-02-26T19:25:00;13.6;;;4.3;;
69706;SDS011;56975;55.726;37.566;2024-02-26T19:35:00;8.7;;;3.9;;
69706;SDS011;56975;55.726;37.566;2024-02-26T19:40:00;7.4;;;3.5;;
69706;SDS011;56975;55.726;37.566;2024-02-26T19:50:00;12.7;;;4.3;;
69706;SDS011;56975;55.726;37.566;2024-02-26T19:55:00;8.6;;;3.2;;
69706;SDS011;56975;55.726;37.566;2024-02-26T20:05:00;11.9;;;4.2;;
69706;SDS011;56975;55.726;37.566;2024-02-26T20:10:00;9.1;;;4.5;;
69706;SDS011;56975;55.726;37.566;2024-02-26T20:20:00;21.9;;;5.8;;
69706;SDS011;56975;55.726;37.566;2024-02-26T20:25:00;9.0;;;4.7;;
69706;SDS011;56975;55.726;37.566;2024-02-26T20:40:00;8.3;;;4.1;;
69706;SDS011;56975;55.726;37.566;2024-02-26T20:55:00;6.0;;;3.3;;
69706;SDS011;56975;55.726;37.566;2024-02-26T21:00:00;9.6;;;3.9;;
69706;SDS011;56975;55.726;37.566;2024-02-26T21:10:00;8.3;;;3.9;;
69706;SDS011;56975;55.726;37.566;2024-02-26T21:15:00;8.2;;;4.0;;
69706;SDS011;56975;55.726;37.566;2024-02-26T21:25:00;11.6;;;4.5;;
69706;SDS011;56975;55.726;37.566;2024-02-26T21:30:00;7.8;;;3.8;;
69706;SDS011;56975;55.726;37.566;2024-02-26T21:40:00;12.4;;;5.0;;
69706;SDS011;56975;55.726;37.566;2024-02-26T21:45:00;10.6;;;5.4;;
69706;SDS011;56975;55.726;37.566;2024-02-26T21:55:00;11.5;;;4.8;;
69706;SDS011;56975;55.726;37.566;2024-02-26T22:00:00;9.7;;;3.9;;
69706;SDS011;56975;55.726;37.566;2024-02-26T22:10:00;9.4;;;4.4;;
69706;SDS011;56975;55.726;37.566;2024-02-26T22:15:00;7.9;;;4.3;;
69706;SDS011;56975;55.726;37.566;2024-02-26T22:30:00;8.8;;;3.6;;
69706;SDS011;56975;55.726;37.566;2024-02-26T22:40:00;10.9;;;4.5;;
69706;SDS011;56975;55.726;37.566;2024-02-26T22:45:00;13.0;;;4.8;;
69706;SDS011;56975;55.726;37.566;2024-02-26T23:10:00;8.8;;;4.7;;
69706;SDS011;56975;55.726;37.566;2024-02-26T23:15:00;12.0;;;5.4;;
69706;SDS011;56975;55.726;37.566;2024-02-26T23:25:00;7.4;;;4.0;;
69706;SDS011;56975;55.726;37.566;2024-02-26T23:30:00;9.2;;;4.0;;
69706;SDS011;56975;55.726;37.566;2024-02-26T23:45:00;9.6;;;4.7;;
69706;SDS011;56975;55.726;37.566;2024-02-26T23:50:00;10.9;;;4.2;;
